sensor_id;sensor_type;location;lat;lon;timestamp;P1;durP1;ratioP1;P2;durP2;ratioP2
50126;SDS011;36024;47.974;16.398;2023-12-20T00:01:06;26.93;;;20.73;;
50126;SDS011;36024;47.974;16.398;2023-12-20T00:03:33;25.57;;;20.43;;
50126;SDS011;36024;47.974;16.398;2023-12-20T00:06:08;27.57;;;20.47;;
50126;SDS011;36024;47.974;16.398;2023-12-20T00:08:36;27.63;;;21.17;;
50126;SDS011;36024;47.974;16.398;2023-12-20T00:11:03;26.03;;;20.37;;
50126;SDS011;36024;47.974;16.398;2023-12-20T00:13:30;26.60;;;21.13;;
50126;SDS011;36024;47.974;16.398;2023-12-20T00:15:57;26.23;;;21.10;;
50126;SDS011;36024;47.974;16.398;2023-12-20T00:18:24;27.53;;;21.33;;
50126;SDS011;36024;47.974;16.398;2023-12-20T00:20:51;25.33;;;21.10;;
50126;SDS011;36024;47.974;16.398;2023-12-20T00:23:18;25.77;;;20.63;;
50126;SDS011;36024;47.974;16.398;2023-12-20T00:25:45;26.30;;;21.33;;
50126;SDS011;36024;47.974;16.398;2023-12-20T00:28:11;25.67;;;21.73;;
50126;SDS011;36024;47.974;16.398;2023-12-20T00:30:38;27.53;;;22.20;;
50126;SDS011;36024;47.974;16.398;2023-12-20T00:33:05;27.13;;;21.47;;
50126;SDS011;36024;47.974;16.398;2023-12-20T00:35:32;27.47;;;22.43;;
50126;SDS011;36024;47.974;16.398;2023-12-20T00:37:59;26.93;;;22.23;;
50126;SDS011;36024;47.974;16.398;2023-12-20T00:40:26;27.37;;;21.97;;
50126;SDS011;36024;47.974;16.398;2023-12-20T00:42:53;27.70;;;22.37;;
50126;SDS011;36024;47.974;16.398;2023-12-20T00:45:20;26.63;;;22.87;;
50126;SDS011;36024;47.974;16.398;2023-12-20T00:47:47;26.20;;;22.20;;
50126;SDS011;36024;47.974;16.398;2023-12-20T00:50:14;29.93;;;21.53;;
50126;SDS011;36024;47.974;16.398;2023-12-20T00:52:41;27.13;;;21.30;;
50126;SDS011;36024;47.974;16.398;2023-12-20T00:55:08;26.93;;;22.67;;
50126;SDS011;36024;47.974;16.398;2023-12-20T00:57:35;27.03;;;22.70;;
50126;SDS011;36024;47.974;16.398;2023-12-20T01:00:02;29.93;;;23.17;;
50126;SDS011;36024;47.974;16.398;2023-12-20T01:02:29;26.53;;;22.07;;
50126;SDS011;36024;47.974;16.398;2023-12-20T01:04:56;26.67;;;22.17;;
50126;SDS011;36024;47.974;16.398;2023-12-20T01:07:23;25.10;;;21.67;;
50126;SDS011;36024;47.974;16.398;2023-12-20T01:09:50;27.53;;;22.43;;
50126;SDS011;36024;47.974;16.398;2023-12-20T01:12:17;27.67;;;22.20;;
50126;SDS011;36024;47.974;16.398;2023-12-20T01:14:44;25.77;;;21.33;;
50126;SDS011;36024;47.974;16.398;2023-12-20T01:17:11;28.27;;;22.30;;
50126;SDS011;36024;47.974;16.398;2023-12-20T01:19:38;25.17;;;20.97;;
50126;SDS011;36024;47.974;16.398;2023-12-20T01:22:06;23.87;;;20.60;;
50126;SDS011;36024;47.974;16.398;2023-12-20T01:24:32;23.43;;;20.47;;
50126;SDS011;36024;47.974;16.398;2023-12-20T01:27:00;24.37;;;20.33;;
50126;SDS011;36024;47.974;16.398;2023-12-20T01:29:27;24.07;;;20.30;;
50126;SDS011;36024;47.974;16.398;2023-12-20T01:31:54;23.97;;;20.23;;
50126;SDS011;36024;47.974;16.398;2023-12-20T01:34:20;41.73;;;27.37;;
50126;SDS011;36024;47.974;16.398;2023-12-20T01:36:48;29.37;;;21.90;;
50126;SDS011;36024;47.974;16.398;2023-12-20T01:39:14;25.70;;;20.67;;
50126;SDS011;36024;47.974;16.398;2023-12-20T01:41:53;25.93;;;21.60;;
50126;SDS011;36024;47.974;16.398;2023-12-20T01:44:20;25.57;;;20.83;;
50126;SDS011;36024;47.974;16.398;2023-12-20T01:46:47;25.73;;;20.37;;
50126;SDS011;36024;47.974;16.398;2023-12-20T01:49:14;26.93;;;21.10;;
50126;SDS011;36024;47.974;16.398;2023-12-20T01:51:42;26.40;;;21.43;;
50126;SDS011;36024;47.974;16.398;2023-12-20T01:54:09;24.50;;;21.10;;
50126;SDS011;36024;47.974;16.398;2023-12-20T01:56:36;27.03;;;21.23;;
50126;SDS011;36024;47.974;16.398;2023-12-20T01:59:04;28.50;;;22.37;;
50126;SDS011;36024;47.974;16.398;2023-12-20T02:01:31;27.73;;;22.60;;
50126;SDS011;36024;47.974;16.398;2023-12-20T02:03:58;27.70;;;21.50;;
50126;SDS011;36024;47.974;16.398;2023-12-20T02:06:27;26.80;;;21.33;;
50126;SDS011;36024;47.974;16.398;2023-12-20T02:08:57;28.63;;;22.23;;
50126;SDS011;36024;47.974;16.398;2023-12-20T02:11:25;28.47;;;21.23;;
50126;SDS011;36024;47.974;16.398;2023-12-20T02:13:53;30.10;;;23.17;;
50126;SDS011;36024;47.974;16.398;2023-12-20T02:16:20;44.40;;;22.70;;
50126;SDS011;36024;47.974;16.398;2023-12-20T02:18:48;40.40;;;23.63;;
50126;SDS011;36024;47.974;16.398;2023-12-20T02:21:15;40.53;;;24.10;;
50126;SDS011;36024;47.974;16.398;2023-12-20T02:23:42;43.40;;;24.07;;
50126;SDS011;36024;47.974;16.398;2023-12-20T02:26:09;46.40;;;24.97;;
50126;SDS011;36024;47.974;16.398;2023-12-20T02:28:36;29.77;;;22.97;;
50126;SDS011;36024;47.974;16.398;2023-12-20T02:31:03;32.10;;;24.13;;
50126;SDS011;36024;47.974;16.398;2023-12-20T02:33:30;39.40;;;24.90;;
50126;SDS011;36024;47.974;16.398;2023-12-20T02:35:57;34.03;;;24.90;;
50126;SDS011;36024;47.974;16.398;2023-12-20T02:38:23;32.47;;;23.70;;
50126;SDS011;36024;47.974;16.398;2023-12-20T02:40:50;31.60;;;23.83;;
50126;SDS011;36024;47.974;16.398;2023-12-20T02:43:17;31.83;;;22.47;;
50126;SDS011;36024;47.974;16.398;2023-12-20T02:45:44;35.10;;;23.83;;
50126;SDS011;36024;47.974;16.398;2023-12-20T02:48:11;29.00;;;22.93;;
50126;SDS011;36024;47.974;16.398;2023-12-20T02:50:38;31.93;;;22.93;;
50126;SDS011;36024;47.974;16.398;2023-12-20T02:53:05;27.27;;;21.70;;
50126;SDS011;36024;47.974;16.398;2023-12-20T02:55:33;30.40;;;22.53;;
50126;SDS011;36024;47.974;16.398;2023-12-20T02:58:00;28.57;;;21.93;;
50126;SDS011;36024;47.974;16.398;2023-12-20T03:00:26;29.60;;;21.50;;
50126;SDS011;36024;47.974;16.398;2023-12-20T03:02:53;30.60;;;23.20;;
50126;SDS011;36024;47.974;16.398;2023-12-20T03:05:20;31.03;;;22.27;;
50126;SDS011;36024;47.974;16.398;2023-12-20T03:07:47;31.00;;;22.33;;
50126;SDS011;36024;47.974;16.398;2023-12-20T03:10:14;45.77;;;22.77;;
50126;SDS011;36024;47.974;16.398;2023-12-20T03:12:52;31.33;;;21.17;;
50126;SDS011;36024;47.974;16.398;2023-12-20T03:15:19;29.07;;;20.73;;
50126;SDS011;36024;47.974;16.398;2023-12-20T03:17:46;28.53;;;20.50;;
50126;SDS011;36024;47.974;16.398;2023-12-20T03:20:13;27.73;;;20.00;;
50126;SDS011;36024;47.974;16.398;2023-12-20T03:22:40;28.60;;;20.53;;
50126;SDS011;36024;47.974;16.398;2023-12-20T03:25:07;26.97;;;20.30;;
50126;SDS011;36024;47.974;16.398;2023-12-20T03:27:36;26.87;;;20.63;;
50126;SDS011;36024;47.974;16.398;2023-12-20T03:30:04;23.67;;;19.13;;
50126;SDS011;36024;47.974;16.398;2023-12-20T03:32:32;23.07;;;18.90;;
50126;SDS011;36024;47.974;16.398;2023-12-20T03:34:59;23.30;;;18.57;;
50126;SDS011;36024;47.974;16.398;2023-12-20T03:37:26;25.17;;;19.50;;
50126;SDS011;36024;47.974;16.398;2023-12-20T03:39:53;25.97;;;19.60;;
50126;SDS011;36024;47.974;16.398;2023-12-20T03:42:20;26.20;;;19.23;;
50126;SDS011;36024;47.974;16.398;2023-12-20T03:44:47;23.27;;;19.30;;
50126;SDS011;36024;47.974;16.398;2023-12-20T03:47:14;23.90;;;18.73;;
50126;SDS011;36024;47.974;16.398;2023-12-20T03:49:40;24.17;;;18.90;;
50126;SDS011;36024;47.974;16.398;2023-12-20T03:52:08;23.37;;;19.50;;
50126;SDS011;36024;47.974;16.398;2023-12-20T03:54:35;24.33;;;18.60;;
50126;SDS011;36024;47.974;16.398;2023-12-20T03:57:02;21.23;;;18.93;;
50126;SDS011;36024;47.974;16.398;2023-12-20T03:59:28;24.00;;;19.57;;
50126;SDS011;36024;47.974;16.398;2023-12-20T04:01:56;25.40;;;18.40;;
50126;SDS011;36024;47.974;16.398;2023-12-20T04:04:22;23.40;;;18.73;;
50126;SDS011;36024;47.974;16.398;2023-12-20T04:06:49;27.47;;;19.40;;
50126;SDS011;36024;47.974;16.398;2023-12-20T04:09:16;23.03;;;18.33;;
50126;SDS011;36024;47.974;16.398;2023-12-20T04:11:43;24.10;;;18.77;;
50126;SDS011;36024;47.974;16.398;2023-12-20T04:14:10;23.00;;;18.87;;
50126;SDS011;36024;47.974;16.398;2023-12-20T04:16:37;23.73;;;19.43;;
50126;SDS011;36024;47.974;16.398;2023-12-20T04:19:05;20.90;;;17.73;;
50126;SDS011;36024;47.974;16.398;2023-12-20T04:21:32;23.53;;;18.90;;
50126;SDS011;36024;47.974;16.398;2023-12-20T04:23:59;23.60;;;18.27;;
50126;SDS011;36024;47.974;16.398;2023-12-20T04:26:26;23.70;;;19.33;;
50126;SDS011;36024;47.974;16.398;2023-12-20T04:28:53;24.00;;;18.53;;
50126;SDS011;36024;47.974;16.398;2023-12-20T04:31:20;24.07;;;19.00;;
50126;SDS011;36024;47.974;16.398;2023-12-20T04:33:47;24.17;;;18.70;;
50126;SDS011;36024;47.974;16.398;2023-12-20T04:36:14;25.53;;;19.63;;
50126;SDS011;36024;47.974;16.398;2023-12-20T04:38:41;21.73;;;18.53;;
50126;SDS011;36024;47.974;16.398;2023-12-20T04:41:08;23.67;;;18.83;;
50126;SDS011;36024;47.974;16.398;2023-12-20T04:43:35;22.17;;;18.47;;
50126;SDS011;36024;47.974;16.398;2023-12-20T04:46:02;22.13;;;19.07;;
50126;SDS011;36024;47.974;16.398;2023-12-20T04:48:29;22.00;;;18.63;;
50126;SDS011;36024;47.974;16.398;2023-12-20T04:50:55;22.13;;;18.50;;
50126;SDS011;36024;47.974;16.398;2023-12-20T04:53:22;23.40;;;18.87;;
50126;SDS011;36024;47.974;16.398;2023-12-20T04:55:49;22.13;;;18.10;;
50126;SDS011;36024;47.974;16.398;2023-12-20T04:58:16;21.27;;;18.00;;
50126;SDS011;36024;47.974;16.398;2023-12-20T05:00:44;22.13;;;18.63;;
50126;SDS011;36024;47.974;16.398;2023-12-20T05:03:11;21.67;;;17.83;;
50126;SDS011;36024;47.974;16.398;2023-12-20T05:05:38;21.30;;;17.87;;
50126;SDS011;36024;47.974;16.398;2023-12-20T05:08:05;21.23;;;18.67;;
50126;SDS011;36024;47.974;16.398;2023-12-20T05:10:33;24.83;;;20.03;;
50126;SDS011;36024;47.974;16.398;2023-12-20T05:12:59;25.63;;;21.43;;
50126;SDS011;36024;47.974;16.398;2023-12-20T05:15:26;23.33;;;20.13;;
50126;SDS011;36024;47.974;16.398;2023-12-20T05:17:53;23.10;;;20.47;;
50126;SDS011;36024;47.974;16.398;2023-12-20T05:20:20;24.60;;;21.00;;
50126;SDS011;36024;47.974;16.398;2023-12-20T05:22:47;22.90;;;19.53;;
50126;SDS011;36024;47.974;16.398;2023-12-20T05:25:14;25.57;;;20.30;;
50126;SDS011;36024;47.974;16.398;2023-12-20T05:27:41;24.13;;;19.97;;
50126;SDS011;36024;47.974;16.398;2023-12-20T05:30:09;23.13;;;19.70;;
50126;SDS011;36024;47.974;16.398;2023-12-20T05:32:36;22.80;;;19.33;;
50126;SDS011;36024;47.974;16.398;2023-12-20T05:35:03;23.13;;;19.50;;
50126;SDS011;36024;47.974;16.398;2023-12-20T05:37:30;22.13;;;19.30;;
50126;SDS011;36024;47.974;16.398;2023-12-20T05:39:57;21.73;;;19.17;;
50126;SDS011;36024;47.974;16.398;2023-12-20T05:42:24;20.93;;;18.30;;
50126;SDS011;36024;47.974;16.398;2023-12-20T05:44:51;23.13;;;19.20;;
50126;SDS011;36024;47.974;16.398;2023-12-20T05:47:20;23.27;;;19.53;;
50126;SDS011;36024;47.974;16.398;2023-12-20T05:49:47;22.53;;;18.80;;
50126;SDS011;36024;47.974;16.398;2023-12-20T05:52:14;22.33;;;18.87;;
50126;SDS011;36024;47.974;16.398;2023-12-20T05:54:41;23.40;;;19.83;;
50126;SDS011;36024;47.974;16.398;2023-12-20T05:57:08;21.67;;;18.97;;
50126;SDS011;36024;47.974;16.398;2023-12-20T05:59:35;22.57;;;19.13;;
50126;SDS011;36024;47.974;16.398;2023-12-20T06:02:03;24.03;;;20.40;;
50126;SDS011;36024;47.974;16.398;2023-12-20T06:04:30;23.20;;;20.30;;
50126;SDS011;36024;47.974;16.398;2023-12-20T06:06:57;23.07;;;19.30;;
50126;SDS011;36024;47.974;16.398;2023-12-20T06:09:24;24.40;;;20.63;;
50126;SDS011;36024;47.974;16.398;2023-12-20T06:11:51;25.30;;;21.90;;
50126;SDS011;36024;47.974;16.398;2023-12-20T06:14:18;26.50;;;23.70;;
50126;SDS011;36024;47.974;16.398;2023-12-20T06:16:45;24.17;;;21.43;;
50126;SDS011;36024;47.974;16.398;2023-12-20T06:19:12;14.33;;;12.33;;
50126;SDS011;36024;47.974;16.398;2023-12-20T06:21:39;12.17;;;9.87;;
50126;SDS011;36024;47.974;16.398;2023-12-20T06:24:10;8.53;;;7.63;;
50126;SDS011;36024;47.974;16.398;2023-12-20T06:26:37;10.03;;;7.73;;
50126;SDS011;36024;47.974;16.398;2023-12-20T06:29:04;8.50;;;6.43;;
50126;SDS011;36024;47.974;16.398;2023-12-20T06:31:30;5.87;;;5.23;;
50126;SDS011;36024;47.974;16.398;2023-12-20T06:33:59;6.90;;;5.87;;
50126;SDS011;36024;47.974;16.398;2023-12-20T06:36:27;6.67;;;5.00;;
50126;SDS011;36024;47.974;16.398;2023-12-20T06:38:53;4.00;;;3.30;;
50126;SDS011;36024;47.974;16.398;2023-12-20T06:41:20;3.00;;;2.67;;
50126;SDS011;36024;47.974;16.398;2023-12-20T06:43:47;2.90;;;2.40;;
50126;SDS011;36024;47.974;16.398;2023-12-20T06:46:16;2.20;;;1.90;;
50126;SDS011;36024;47.974;16.398;2023-12-20T06:48:44;1.80;;;1.50;;
50126;SDS011;36024;47.974;16.398;2023-12-20T06:51:15;2.00;;;1.70;;
50126;SDS011;36024;47.974;16.398;2023-12-20T06:53:42;2.90;;;1.60;;
50126;SDS011;36024;47.974;16.398;2023-12-20T06:56:10;2.10;;;1.47;;
50126;SDS011;36024;47.974;16.398;2023-12-20T06:58:42;1.70;;;1.50;;
50126;SDS011;36024;47.974;16.398;2023-12-20T07:01:15;2.20;;;1.53;;
50126;SDS011;36024;47.974;16.398;2023-12-20T07:03:42;3.00;;;1.53;;
50126;SDS011;36024;47.974;16.398;2023-12-20T07:06:09;1.63;;;1.53;;
50126;SDS011;36024;47.974;16.398;2023-12-20T07:08:36;2.70;;;1.67;;
50126;SDS011;36024;47.974;16.398;2023-12-20T07:11:03;1.90;;;1.70;;
50126;SDS011;36024;47.974;16.398;2023-12-20T07:13:30;1.87;;;1.53;;
50126;SDS011;36024;47.974;16.398;2023-12-20T07:15:57;1.83;;;1.70;;
50126;SDS011;36024;47.974;16.398;2023-12-20T07:18:24;3.10;;;1.67;;
50126;SDS011;36024;47.974;16.398;2023-12-20T07:20:51;2.00;;;1.53;;
50126;SDS011;36024;47.974;16.398;2023-12-20T07:23:18;1.73;;;1.60;;
50126;SDS011;36024;47.974;16.398;2023-12-20T07:25:49;1.90;;;1.70;;
50126;SDS011;36024;47.974;16.398;2023-12-20T07:28:16;2.20;;;1.90;;
50126;SDS011;36024;47.974;16.398;2023-12-20T07:30:43;3.00;;;1.70;;
50126;SDS011;36024;47.974;16.398;2023-12-20T07:33:10;2.03;;;1.80;;
50126;SDS011;36024;47.974;16.398;2023-12-20T07:35:39;1.77;;;1.60;;
50126;SDS011;36024;47.974;16.398;2023-12-20T07:38:06;2.53;;;1.50;;
50126;SDS011;36024;47.974;16.398;2023-12-20T07:40:33;2.20;;;1.83;;
50126;SDS011;36024;47.974;16.398;2023-12-20T07:43:00;2.07;;;1.87;;
50126;SDS011;36024;47.974;16.398;2023-12-20T07:45:26;1.87;;;1.70;;
50126;SDS011;36024;47.974;16.398;2023-12-20T07:47:53;2.37;;;1.80;;
50126;SDS011;36024;47.974;16.398;2023-12-20T07:50:20;3.70;;;1.60;;
50126;SDS011;36024;47.974;16.398;2023-12-20T07:52:47;2.03;;;1.80;;
50126;SDS011;36024;47.974;16.398;2023-12-20T07:55:14;2.17;;;1.97;;
50126;SDS011;36024;47.974;16.398;2023-12-20T07:57:41;2.20;;;1.60;;
50126;SDS011;36024;47.974;16.398;2023-12-20T08:00:09;1.77;;;1.63;;
50126;SDS011;36024;47.974;16.398;2023-12-20T08:02:36;2.07;;;1.47;;
50126;SDS011;36024;47.974;16.398;2023-12-20T08:05:03;1.73;;;1.63;;
50126;SDS011;36024;47.974;16.398;2023-12-20T08:07:30;1.73;;;1.40;;
50126;SDS011;36024;47.974;16.398;2023-12-20T08:09:57;1.57;;;1.40;;
50126;SDS011;36024;47.974;16.398;2023-12-20T08:12:24;1.63;;;1.47;;
50126;SDS011;36024;47.974;16.398;2023-12-20T08:14:54;2.77;;;1.47;;
50126;SDS011;36024;47.974;16.398;2023-12-20T08:17:21;1.60;;;1.40;;
50126;SDS011;36024;47.974;16.398;2023-12-20T08:19:49;2.37;;;1.40;;
50126;SDS011;36024;47.974;16.398;2023-12-20T08:22:16;1.40;;;1.30;;
50126;SDS011;36024;47.974;16.398;2023-12-20T08:24:43;1.50;;;1.40;;
50126;SDS011;36024;47.974;16.398;2023-12-20T08:27:10;1.90;;;1.50;;
50126;SDS011;36024;47.974;16.398;2023-12-20T08:29:37;1.20;;;1.10;;
50126;SDS011;36024;47.974;16.398;2023-12-20T08:32:04;2.27;;;1.20;;
50126;SDS011;36024;47.974;16.398;2023-12-20T08:34:31;1.30;;;1.20;;
50126;SDS011;36024;47.974;16.398;2023-12-20T08:36:58;1.83;;;1.20;;
50126;SDS011;36024;47.974;16.398;2023-12-20T08:39:26;2.33;;;1.50;;
50126;SDS011;36024;47.974;16.398;2023-12-20T08:41:53;2.43;;;1.40;;
50126;SDS011;36024;47.974;16.398;2023-12-20T08:44:19;2.03;;;1.33;;
50126;SDS011;36024;47.974;16.398;2023-12-20T08:46:47;2.43;;;1.27;;
50126;SDS011;36024;47.974;16.398;2023-12-20T08:49:14;1.30;;;1.17;;
50126;SDS011;36024;47.974;16.398;2023-12-20T08:51:41;2.87;;;1.20;;
50126;SDS011;36024;47.974;16.398;2023-12-20T08:54:08;2.00;;;1.40;;
50126;SDS011;36024;47.974;16.398;2023-12-20T08:56:36;2.10;;;1.20;;
50126;SDS011;36024;47.974;16.398;2023-12-20T08:59:02;1.97;;;1.30;;
50126;SDS011;36024;47.974;16.398;2023-12-20T09:01:31;1.80;;;1.37;;
50126;SDS011;36024;47.974;16.398;2023-12-20T09:03:58;3.00;;;1.20;;
50126;SDS011;36024;47.974;16.398;2023-12-20T09:06:25;1.60;;;1.00;;
50126;SDS011;36024;47.974;16.398;2023-12-20T09:08:52;1.47;;;1.30;;
50126;SDS011;36024;47.974;16.398;2023-12-20T09:11:19;2.27;;;1.10;;
50126;SDS011;36024;47.974;16.398;2023-12-20T09:13:46;1.53;;;1.00;;
50126;SDS011;36024;47.974;16.398;2023-12-20T09:16:13;1.00;;;0.90;;
50126;SDS011;36024;47.974;16.398;2023-12-20T09:18:42;2.23;;;0.90;;
50126;SDS011;36024;47.974;16.398;2023-12-20T09:21:09;1.03;;;0.80;;
50126;SDS011;36024;47.974;16.398;2023-12-20T09:23:36;0.87;;;0.83;;
50126;SDS011;36024;47.974;16.398;2023-12-20T09:26:03;0.80;;;0.80;;
50126;SDS011;36024;47.974;16.398;2023-12-20T09:28:30;1.53;;;1.00;;
50126;SDS011;36024;47.974;16.398;2023-12-20T09:30:59;1.10;;;1.00;;
50126;SDS011;36024;47.974;16.398;2023-12-20T09:33:26;1.67;;;1.10;;
50126;SDS011;36024;47.974;16.398;2023-12-20T09:35:53;0.93;;;0.80;;
50126;SDS011;36024;47.974;16.398;2023-12-20T09:38:20;1.40;;;0.90;;
50126;SDS011;36024;47.974;16.398;2023-12-20T09:40:47;1.87;;;0.90;;
50126;SDS011;36024;47.974;16.398;2023-12-20T09:43:14;0.90;;;0.90;;
50126;SDS011;36024;47.974;16.398;2023-12-20T09:45:45;4.83;;;1.00;;
50126;SDS011;36024;47.974;16.398;2023-12-20T09:48:13;0.67;;;0.67;;
50126;SDS011;36024;47.974;16.398;2023-12-20T09:50:44;1.77;;;0.80;;
50126;SDS011;36024;47.974;16.398;2023-12-20T09:53:18;1.53;;;0.80;;
50126;SDS011;36024;47.974;16.398;2023-12-20T09:55:46;0.73;;;0.73;;
50126;SDS011;36024;47.974;16.398;2023-12-20T09:58:14;1.10;;;0.67;;
50126;SDS011;36024;47.974;16.398;2023-12-20T10:00:42;3.60;;;0.70;;
50126;SDS011;36024;47.974;16.398;2023-12-20T10:03:09;0.80;;;0.80;;
50126;SDS011;36024;47.974;16.398;2023-12-20T10:05:37;0.60;;;0.60;;
50126;SDS011;36024;47.974;16.398;2023-12-20T10:08:06;0.67;;;0.67;;
50126;SDS011;36024;47.974;16.398;2023-12-20T10:10:33;0.87;;;0.70;;
50126;SDS011;36024;47.974;16.398;2023-12-20T10:13:13;0.63;;;0.57;;
50126;SDS011;36024;47.974;16.398;2023-12-20T10:15:40;0.50;;;0.50;;
50126;SDS011;36024;47.974;16.398;2023-12-20T10:18:09;0.53;;;0.53;;
50126;SDS011;36024;47.974;16.398;2023-12-20T10:20:36;0.90;;;0.47;;
50126;SDS011;36024;47.974;16.398;2023-12-20T10:23:03;0.60;;;0.60;;
50126;SDS011;36024;47.974;16.398;2023-12-20T10:25:30;0.50;;;0.50;;
50126;SDS011;36024;47.974;16.398;2023-12-20T10:28:12;0.40;;;0.40;;
50126;SDS011;36024;47.974;16.398;2023-12-20T10:30:46;0.50;;;0.50;;
50126;SDS011;36024;47.974;16.398;2023-12-20T10:33:16;0.80;;;0.57;;
50126;SDS011;36024;47.974;16.398;2023-12-20T10:35:51;0.60;;;0.50;;
50126;SDS011;36024;47.974;16.398;2023-12-20T10:38:18;0.40;;;0.40;;
50126;SDS011;36024;47.974;16.398;2023-12-20T10:40:46;0.40;;;0.40;;
50126;SDS011;36024;47.974;16.398;2023-12-20T10:43:14;0.30;;;0.30;;
50126;SDS011;36024;47.974;16.398;2023-12-20T10:45:42;0.40;;;0.40;;
50126;SDS011;36024;47.974;16.398;2023-12-20T10:48:11;0.40;;;0.40;;
50126;SDS011;36024;47.974;16.398;2023-12-20T10:50:39;0.30;;;0.30;;
50126;SDS011;36024;47.974;16.398;2023-12-20T10:53:07;0.33;;;0.33;;
50126;SDS011;36024;47.974;16.398;2023-12-20T10:55:34;0.60;;;0.50;;
50126;SDS011;36024;47.974;16.398;2023-12-20T10:58:01;1.33;;;0.40;;
50126;SDS011;36024;47.974;16.398;2023-12-20T11:00:31;0.40;;;0.30;;
50126;SDS011;36024;47.974;16.398;2023-12-20T11:03:00;0.40;;;0.40;;
50126;SDS011;36024;47.974;16.398;2023-12-20T11:08:02;0.30;;;0.30;;
50126;SDS011;36024;47.974;16.398;2023-12-20T11:10:39;0.37;;;0.30;;
50126;SDS011;36024;47.974;16.398;2023-12-20T11:13:16;0.30;;;0.30;;
50126;SDS011;36024;47.974;16.398;2023-12-20T11:15:46;0.27;;;0.27;;
50126;SDS011;36024;47.974;16.398;2023-12-20T11:18:14;0.30;;;0.30;;
50126;SDS011;36024;47.974;16.398;2023-12-20T11:20:41;0.50;;;0.50;;
50126;SDS011;36024;47.974;16.398;2023-12-20T11:23:09;1.00;;;0.30;;
50126;SDS011;36024;47.974;16.398;2023-12-20T11:25:51;0.50;;;0.50;;
50126;SDS011;36024;47.974;16.398;2023-12-20T11:28:23;0.23;;;0.23;;
50126;SDS011;36024;47.974;16.398;2023-12-20T11:30:52;0.30;;;0.30;;
50126;SDS011;36024;47.974;16.398;2023-12-20T11:33:24;0.40;;;0.40;;
50126;SDS011;36024;47.974;16.398;2023-12-20T11:35:58;0.37;;;0.37;;
50126;SDS011;36024;47.974;16.398;2023-12-20T11:38:35;0.30;;;0.30;;
50126;SDS011;36024;47.974;16.398;2023-12-20T11:41:06;0.30;;;0.20;;
50126;SDS011;36024;47.974;16.398;2023-12-20T11:43:37;0.40;;;0.27;;
50126;SDS011;36024;47.974;16.398;2023-12-20T11:48:34;0.20;;;0.20;;
50126;SDS011;36024;47.974;16.398;2023-12-20T11:51:01;0.40;;;0.40;;
50126;SDS011;36024;47.974;16.398;2023-12-20T11:53:30;0.30;;;0.30;;
50126;SDS011;36024;47.974;16.398;2023-12-20T11:56:00;0.30;;;0.30;;
50126;SDS011;36024;47.974;16.398;2023-12-20T11:58:29;0.40;;;0.40;;
50126;SDS011;36024;47.974;16.398;2023-12-20T12:00:57;0.23;;;0.23;;
50126;SDS011;36024;47.974;16.398;2023-12-20T12:03:24;0.70;;;0.57;;
50126;SDS011;36024;47.974;16.398;2023-12-20T12:05:51;0.43;;;0.40;;
50126;SDS011;36024;47.974;16.398;2023-12-20T12:08:18;0.50;;;0.50;;
50126;SDS011;36024;47.974;16.398;2023-12-20T12:10:45;0.40;;;0.40;;
50126;SDS011;36024;47.974;16.398;2023-12-20T12:13:12;0.60;;;0.60;;
50126;SDS011;36024;47.974;16.398;2023-12-20T12:15:40;0.87;;;0.87;;
50126;SDS011;36024;47.974;16.398;2023-12-20T12:18:08;0.83;;;0.60;;
50126;SDS011;36024;47.974;16.398;2023-12-20T12:20:36;0.23;;;0.23;;
50126;SDS011;36024;47.974;16.398;2023-12-20T12:23:04;0.40;;;0.40;;
50126;SDS011;36024;47.974;16.398;2023-12-20T12:25:34;0.20;;;0.20;;
50126;SDS011;36024;47.974;16.398;2023-12-20T12:28:08;0.50;;;0.33;;
50126;SDS011;36024;47.974;16.398;2023-12-20T12:30:35;0.30;;;0.30;;
50126;SDS011;36024;47.974;16.398;2023-12-20T12:33:11;0.30;;;0.30;;
50126;SDS011;36024;47.974;16.398;2023-12-20T12:35:39;0.20;;;0.13;;
50126;SDS011;36024;47.974;16.398;2023-12-20T12:38:07;0.83;;;0.20;;
50126;SDS011;36024;47.974;16.398;2023-12-20T12:40:35;0.30;;;0.27;;
50126;SDS011;36024;47.974;16.398;2023-12-20T12:43:04;3.37;;;0.30;;
50126;SDS011;36024;47.974;16.398;2023-12-20T12:45:33;1.20;;;0.30;;
50126;SDS011;36024;47.974;16.398;2023-12-20T12:48:00;0.30;;;0.30;;
50126;SDS011;36024;47.974;16.398;2023-12-20T12:50:27;0.30;;;0.30;;
50126;SDS011;36024;47.974;16.398;2023-12-20T12:52:56;0.30;;;0.30;;
50126;SDS011;36024;47.974;16.398;2023-12-20T12:55:23;0.20;;;0.20;;
50126;SDS011;36024;47.974;16.398;2023-12-20T12:57:50;0.53;;;0.30;;
50126;SDS011;36024;47.974;16.398;2023-12-20T13:00:17;0.30;;;0.30;;
50126;SDS011;36024;47.974;16.398;2023-12-20T13:02:45;0.97;;;0.30;;
50126;SDS011;36024;47.974;16.398;2023-12-20T13:05:13;0.83;;;0.30;;
50126;SDS011;36024;47.974;16.398;2023-12-20T13:07:40;0.50;;;0.40;;
50126;SDS011;36024;47.974;16.398;2023-12-20T13:10:08;0.40;;;0.30;;
50126;SDS011;36024;47.974;16.398;2023-12-20T13:12:35;0.47;;;0.47;;
50126;SDS011;36024;47.974;16.398;2023-12-20T13:15:02;1.37;;;0.30;;
50126;SDS011;36024;47.974;16.398;2023-12-20T13:17:30;0.30;;;0.30;;
50126;SDS011;36024;47.974;16.398;2023-12-20T13:19:58;0.30;;;0.30;;
50126;SDS011;36024;47.974;16.398;2023-12-20T13:22:26;0.73;;;0.50;;
50126;SDS011;36024;47.974;16.398;2023-12-20T13:24:53;0.47;;;0.40;;
50126;SDS011;36024;47.974;16.398;2023-12-20T13:27:20;0.30;;;0.30;;
50126;SDS011;36024;47.974;16.398;2023-12-20T13:29:47;0.33;;;0.33;;
50126;SDS011;36024;47.974;16.398;2023-12-20T13:32:13;0.70;;;0.40;;
50126;SDS011;36024;47.974;16.398;2023-12-20T13:34:40;0.30;;;0.30;;
50126;SDS011;36024;47.974;16.398;2023-12-20T13:37:07;0.30;;;0.30;;
50126;SDS011;36024;47.974;16.398;2023-12-20T13:39:35;0.40;;;0.30;;
50126;SDS011;36024;47.974;16.398;2023-12-20T13:42:02;4.27;;;1.00;;
50126;SDS011;36024;47.974;16.398;2023-12-20T13:44:30;2.57;;;0.40;;
50126;SDS011;36024;47.974;16.398;2023-12-20T13:46:57;1.07;;;0.40;;
50126;SDS011;36024;47.974;16.398;2023-12-20T13:49:24;0.53;;;0.33;;
50126;SDS011;36024;47.974;16.398;2023-12-20T13:51:53;0.87;;;0.30;;
50126;SDS011;36024;47.974;16.398;2023-12-20T13:54:21;1.17;;;0.33;;
50126;SDS011;36024;47.974;16.398;2023-12-20T13:56:49;0.20;;;0.20;;
50126;SDS011;36024;47.974;16.398;2023-12-20T13:59:34;0.40;;;0.40;;
50126;SDS011;36024;47.974;16.398;2023-12-20T14:02:01;0.27;;;0.27;;
50126;SDS011;36024;47.974;16.398;2023-12-20T14:04:30;0.30;;;0.30;;
50126;SDS011;36024;47.974;16.398;2023-12-20T14:07:09;0.67;;;0.50;;
50126;SDS011;36024;47.974;16.398;2023-12-20T14:09:39;0.40;;;0.40;;
50126;SDS011;36024;47.974;16.398;2023-12-20T14:12:13;0.77;;;0.40;;
50126;SDS011;36024;47.974;16.398;2023-12-20T14:14:40;0.40;;;0.40;;
50126;SDS011;36024;47.974;16.398;2023-12-20T14:17:10;0.97;;;0.50;;
50126;SDS011;36024;47.974;16.398;2023-12-20T14:19:37;0.37;;;0.30;;
50126;SDS011;36024;47.974;16.398;2023-12-20T14:22:06;0.33;;;0.30;;
50126;SDS011;36024;47.974;16.398;2023-12-20T14:24:33;2.23;;;0.47;;
50126;SDS011;36024;47.974;16.398;2023-12-20T14:27:01;0.93;;;0.60;;
50126;SDS011;36024;47.974;16.398;2023-12-20T14:29:28;1.73;;;0.50;;
50126;SDS011;36024;47.974;16.398;2023-12-20T14:31:55;0.53;;;0.40;;